Accueil
METAR-TAF:

METAR-TAF

Aéroports :

Aéroport international de Chuuk

Weno, Micronésie

latitude: 07-28N, longitude: 151-51E, altitude: 3 m

Observation

Le bulletin a été fait il y a 2 heures et 4 minutes, à 17:51 UTC
Vent 4 kt de direction variable
Température 27°C
Humidité 84%
Pression 1008 hPa
Visibilité: 24.1 km
Quelques nuages à une hauteur de 1400 ft
Nuages épars à une hauteur de 12000 ft
Nuages fragmentés à une hauteur de 28000 ft

METAR: PTKK 181751Z VRB04KT 15SM FEW014 SCT120 BKN280 27/24 A2976 RMK SLP079 8/171 T02670241 10280 20267 56005

Heure: 05:55 (19:55 UTC)

Prévision

Le bulletin a été fait il y a 2 heures et 13 minutes, à 17:42 UTC
Prévision valable du 18 à 18 UTC au 19 à 18 UTC
Vent 9 kt de est
Visibilité: 10 km
Quelques nuages à une hauteur de 1800 ft
Nuages épars à une hauteur de 7000 ft
Nuages fragmentés à une hauteur de 14000 ft
averses à proximité,

TAF: PTKK 181742Z 1818/1918 08009KT P6SM VCSH FEW018 SCT070 BKN140

Observations et prévisions météorologiques de plus de 4000 aéroports (messages METAR et TAF).

Les stations disponibles sont représentées par des disques jaunes et rouges sur la carte.

Passer la souris dessus pour voir le nom de la station.

Cliquer dessus pour voir les observations et prévisions météorologiques.

Pour changer de carte: cliquez sur les boutons verts avec une croix noire pour zoomer, sur le bouton vert avec un tiret pour effectuer un zoom arrière, ou sur les flèches vertes pour les cartes adjacentes.


METAR-TAF: